Time;durP1;ratioP1;P1;durP2;ratioP2;P2;SDS_P1;SDS_P2;PMS_P1;PMS_P2;Temp;Humidity;BMP_temperature;BMP_pressure;BME280_temperature;BME280_humidity;BME280_pressure;Samples;Min_cycle;Max_cycle;Signal;HPM_P1;HPM_P2
2023/12/31 00:00:09;;;;;;;6.47;2.10;;;;;;;;;;5114283;28;20281;-27
2023/12/31 00:02:35;;;;;;;5.03;2.10;;;;;;;;;;5114519;28;20284;-28
2023/12/31 00:05:00;;;;;;;3.75;1.60;;;;;;;;;;5114360;28;20378;-28
2023/12/31 00:07:26;;;;;;;7.70;2.00;;;;;;;;;;5114297;28;20068;-28
2023/12/31 00:09:52;;;;;;;6.15;1.90;;;;;;;;;;5114302;28;20281;-28
2023/12/31 00:12:17;;;;;;;3.42;2.30;;;;;;;;;;5114110;28;20019;-27
2023/12/31 00:14:42;;;;;;;4.70;2.10;;;;;;;;;;5114762;28;20047;-28
2023/12/31 00:17:07;;;;;;;3.53;2.10;;;;;;;;;;5114133;28;20260;-28
2023/12/31 00:19:32;;;;;;;4.90;2.20;;;;;;;;;;5114035;28;20310;-27
2023/12/31 00:21:58;;;;;;;4.30;1.90;;;;;;;;;;5114047;28;20386;-27
2023/12/31 00:24:23;;;;;;;6.63;2.10;;;;;;;;;;5114292;28;20270;-28
2023/12/31 00:26:48;;;;;;;3.05;1.85;;;;;;;;;;5114037;28;20019;-27
2023/12/31 00:29:14;;;;;;;5.47;1.88;;;;;;;;;;5114160;28;20016;-27
2023/12/31 00:31:39;;;;;;;3.13;1.70;;;;;;;;;;5114470;28;20078;-28
2023/12/31 00:34:04;;;;;;;4.25;1.70;;;;;;;;;;5114241;28;20477;-27
2023/12/31 00:36:31;;;;;;;3.83;1.75;;;;;;;;;;5114500;28;20024;-27
2023/12/31 00:38:56;;;;;;;2.90;1.70;;;;;;;;;;5114190;28;20105;-32
2023/12/31 00:41:21;;;;;;;4.32;1.77;;;;;;;;;;5113856;28;20487;-27
2023/12/31 00:43:46;;;;;;;3.08;1.58;;;;;;;;;;5113797;28;20044;-28
2023/12/31 00:46:12;;;;;;;3.33;1.60;;;;;;;;;;5113845;28;20046;-27
2023/12/31 00:48:38;;;;;;;3.85;1.70;;;;;;;;;;5113745;28;20241;-27
2023/12/31 00:51:03;;;;;;;3.65;1.80;;;;;;;;;;5114068;28;20064;-27
2023/12/31 00:53:28;;;;;;;4.68;1.70;;;;;;;;;;5113797;28;20016;-28
2023/12/31 00:55:53;;;;;;;4.80;1.60;;;;;;;;;;5114054;28;20094;-27
2023/12/31 00:58:19;;;;;;;6.27;1.90;;;;;;;;;;5113681;28;20020;-27
2023/12/31 01:00:44;;;;;;;3.70;1.50;;;;;;;;;;5113527;28;20368;-28
2023/12/31 01:03:09;;;;;;;2.42;1.52;;;;;;;;;;5114168;28;20047;-27
2023/12/31 01:05:34;;;;;;;2.35;1.48;;;;;;;;;;5114197;28;20031;-27
2023/12/31 01:07:59;;;;;;;4.90;1.67;;;;;;;;;;5114151;28;20031;-27
2023/12/31 01:10:25;;;;;;;5.50;1.40;;;;;;;;;;5095322;28;20297;-27
2023/12/31 01:12:50;;;;;;;2.40;1.52;;;;;;;;;;5113700;28;20058;-27
2023/12/31 01:15:15;;;;;;;4.63;1.30;;;;;;;;;;5114109;28;20055;-27
2023/12/31 01:17:40;;;;;;;4.10;1.50;;;;;;;;;;5113510;28;20256;-27
2023/12/31 01:20:07;;;;;;;2.55;1.30;;;;;;;;;;5114096;28;20258;-27
2023/12/31 01:22:33;;;;;;;3.90;1.40;;;;;;;;;;5113719;28;20024;-27
2023/12/31 01:24:58;;;;;;;4.23;1.50;;;;;;;;;;5117125;28;20008;-28
2023/12/31 01:27:23;;;;;;;3.58;1.20;;;;;;;;;;5117402;28;20682;-27
2023/12/31 01:29:48;;;;;;;5.07;1.30;;;;;;;;;;5117329;28;20023;-27
2023/12/31 01:32:13;;;;;;;3.85;1.50;;;;;;;;;;5117572;28;20245;-27
2023/12/31 01:34:39;;;;;;;3.63;1.33;;;;;;;;;;5117284;28;20012;-27
2023/12/31 01:37:04;;;;;;;3.20;1.30;;;;;;;;;;5117476;28;20019;-27
2023/12/31 01:39:29;;;;;;;4.70;1.33;;;;;;;;;;5117442;28;20064;-27
2023/12/31 01:41:54;;;;;;;2.87;1.20;;;;;;;;;;5117091;28;20011;-27
2023/12/31 01:44:19;;;;;;;1.98;1.05;;;;;;;;;;5116951;28;20291;-27
2023/12/31 01:46:46;;;;;;;2.43;1.27;;;;;;;;;;5116570;28;20037;-27
2023/12/31 01:49:11;;;;;;;4.50;1.13;;;;;;;;;;5116775;28;20261;-27
2023/12/31 01:51:36;;;;;;;3.67;1.30;;;;;;;;;;5116935;28;20016;-27
2023/12/31 01:54:04;;;;;;;3.50;1.38;;;;;;;;;;5117305;28;20708;-29
2023/12/31 01:56:29;;;;;;;1.48;1.00;;;;;;;;;;5116808;28;20026;-29
2023/12/31 01:58:55;;;;;;;5.30;1.35;;;;;;;;;;5116659;28;20019;-29
2023/12/31 02:01:22;;;;;;;2.83;1.00;;;;;;;;;;5117650;28;20039;-29
2023/12/31 02:03:47;;;;;;;2.50;1.17;;;;;;;;;;5116577;28;20098;-30
2023/12/31 02:06:12;;;;;;;4.47;1.17;;;;;;;;;;5098375;28;20055;-29
2023/12/31 02:08:38;;;;;;;2.05;1.10;;;;;;;;;;5116597;28;20781;-29
2023/12/31 02:11:03;;;;;;;4.13;1.33;;;;;;;;;;5116416;28;20016;-29
2023/12/31 02:13:29;;;;;;;3.25;1.50;;;;;;;;;;5116588;28;20031;-29
2023/12/31 02:15:54;;;;;;;2.13;1.17;;;;;;;;;;5114670;28;20060;-29
2023/12/31 02:18:19;;;;;;;2.47;1.20;;;;;;;;;;5113668;28;20800;-29
2023/12/31 02:20:44;;;;;;;2.05;1.20;;;;;;;;;;5113583;28;20269;-29
2023/12/31 02:23:09;;;;;;;2.53;1.27;;;;;;;;;;5113655;28;20030;-29
2023/12/31 02:25:37;;;;;;;2.15;1.00;;;;;;;;;;5113415;28;20019;-29
2023/12/31 02:28:02;;;;;;;3.60;1.35;;;;;;;;;;5113422;28;20026;-29
2023/12/31 02:30:27;;;;;;;3.38;1.20;;;;;;;;;;5113676;28;20016;-28
2023/12/31 02:32:52;;;;;;;3.10;1.03;;;;;;;;;;5113883;28;20020;-29
2023/12/31 02:35:18;;;;;;;1.90;1.10;;;;;;;;;;5095832;28;20752;-29
2023/12/31 02:37:43;;;;;;;3.17;1.20;;;;;;;;;;5115429;28;20295;-29
2023/12/31 02:40:09;;;;;;;4.95;1.35;;;;;;;;;;5115632;28;20791;-29
2023/12/31 02:42:34;;;;;;;3.53;1.30;;;;;;;;;;5115435;28;20023;-28
2023/12/31 02:44:59;;;;;;;2.73;1.27;;;;;;;;;;5115433;28;20526;-29
2023/12/31 02:47:24;;;;;;;2.67;1.27;;;;;;;;;;5115192;28;20261;-29
2023/12/31 02:49:49;;;;;;;2.00;1.07;;;;;;;;;;5115624;28;20242;-28
2023/12/31 02:52:15;;;;;;;3.55;1.10;;;;;;;;;;5115118;28;20261;-29
2023/12/31 02:54:40;;;;;;;1.77;0.90;;;;;;;;;;5115628;28;20015;-28
2023/12/31 02:57:07;;;;;;;5.32;1.30;;;;;;;;;;5114978;28;20419;-29
2023/12/31 02:59:32;;;;;;;3.03;1.20;;;;;;;;;;5114965;28;20371;-29
2023/12/31 03:01:57;;;;;;;4.25;1.40;;;;;;;;;;5114832;28;20019;-29
2023/12/31 03:04:23;;;;;;;3.10;1.10;;;;;;;;;;5114784;28;20016;-29
2023/12/31 03:06:51;;;;;;;2.33;1.20;;;;;;;;;;5114831;28;20328;-29
2023/12/31 03:09:16;;;;;;;3.67;1.35;;;;;;;;;;5114642;28;20250;-29
2023/12/31 03:11:41;;;;;;;2.33;1.00;;;;;;;;;;5114949;28;20012;-29
2023/12/31 03:14:06;;;;;;;4.30;1.30;;;;;;;;;;5114699;28;20723;-29
2023/12/31 03:16:32;;;;;;;5.47;1.37;;;;;;;;;;5115164;28;20313;-29
2023/12/31 03:18:57;;;;;;;2.13;1.07;;;;;;;;;;5096180;28;20798;-29
2023/12/31 03:21:22;;;;;;;1.70;1.10;;;;;;;;;;5114517;28;20253;-29
2023/12/31 03:23:47;;;;;;;1.88;1.20;;;;;;;;;;5114404;28;20277;-28
2023/12/31 03:26:12;;;;;;;2.33;1.20;;;;;;;;;;5114995;28;20016;-29
2023/12/31 03:28:37;;;;;;;2.90;1.20;;;;;;;;;;5114819;28;20072;-29
2023/12/31 03:31:03;;;;;;;4.20;1.33;;;;;;;;;;5114198;28;20086;-29
2023/12/31 03:33:28;;;;;;;3.65;1.20;;;;;;;;;;5114039;28;20261;-29
2023/12/31 03:35:53;;;;;;;2.10;1.17;;;;;;;;;;5114164;28;20030;-29
2023/12/31 03:38:19;;;;;;;5.27;1.63;;;;;;;;;;5114522;28;20153;-28
2023/12/31 03:40:44;;;;;;;2.13;1.13;;;;;;;;;;5114079;28;20613;-29
2023/12/31 03:43:09;;;;;;;1.92;1.35;;;;;;;;;;5114507;28;20363;-29
2023/12/31 03:45:34;;;;;;;4.10;1.50;;;;;;;;;;5114616;28;20020;-29
2023/12/31 03:47:59;;;;;;;4.27;1.40;;;;;;;;;;5113721;28;20258;-28
2023/12/31 03:50:24;;;;;;;1.67;1.00;;;;;;;;;;5114451;28;20299;-29
2023/12/31 03:52:50;;;;;;;4.77;1.30;;;;;;;;;;5113931;28;20264;-29
2023/12/31 03:55:15;;;;;;;2.38;1.30;;;;;;;;;;5113846;28;20705;-29
2023/12/31 03:57:40;;;;;;;3.70;1.60;;;;;;;;;;5114337;28;20019;-29
2023/12/31 04:00:07;;;;;;;3.50;1.40;;;;;;;;;;5113974;28;20058;-30
2023/12/31 04:02:33;;;;;;;4.05;1.50;;;;;;;;;;5095594;28;20379;-29
2023/12/31 04:04:58;;;;;;;1.93;1.40;;;;;;;;;;5113547;28;20008;-30
2023/12/31 04:07:23;;;;;;;3.53;1.40;;;;;;;;;;5113547;28;20641;-29
2023/12/31 04:09:48;;;;;;;4.13;1.38;;;;;;;;;;5113502;28;20253;-29
2023/12/31 04:12:13;;;;;;;3.97;1.52;;;;;;;;;;5113634;28;20099;-29
2023/12/31 04:14:39;;;;;;;2.43;1.13;;;;;;;;;;5113416;28;20485;-29
2023/12/31 04:17:04;;;;;;;3.87;1.17;;;;;;;;;;5113445;28;20280;-29
2023/12/31 04:19:29;;;;;;;3.70;1.50;;;;;;;;;;5113397;28;20257;-29
2023/12/31 04:21:54;;;;;;;3.70;1.47;;;;;;;;;;5113861;28;20241;-29
2023/12/31 04:24:19;;;;;;;3.63;1.40;;;;;;;;;;5113274;28;20854;-29
2023/12/31 04:26:44;;;;;;;3.30;1.30;;;;;;;;;;5113766;28;20257;-36
2023/12/31 04:29:10;;;;;;;2.20;1.20;;;;;;;;;;5113383;28;20280;-29
2023/12/31 04:31:39;;;;;;;3.45;1.45;;;;;;;;;;5113204;28;20272;-29
2023/12/31 04:34:05;;;;;;;2.22;1.35;;;;;;;;;;5113731;28;20023;-29
2023/12/31 04:36:30;;;;;;;4.25;1.27;;;;;;;;;;5113769;28;20015;-29
2023/12/31 04:38:56;;;;;;;3.73;1.73;;;;;;;;;;5113708;28;20361;-29
2023/12/31 04:41:21;;;;;;;2.65;1.50;;;;;;;;;;5113437;28;20269;-29
2023/12/31 04:43:46;;;;;;;3.05;1.40;;;;;;;;;;5094782;28;20048;-29
2023/12/31 04:46:12;;;;;;;1.77;1.13;;;;;;;;;;5113591;28;20016;-29
2023/12/31 04:48:40;;;;;;;3.00;1.60;;;;;;;;;;5113176;28;20523;-29
2023/12/31 04:51:05;;;;;;;4.63;1.55;;;;;;;;;;5113733;28;20260;-29
2023/12/31 04:53:32;;;;;;;3.30;1.30;;;;;;;;;;5113023;28;20039;-29
2023/12/31 04:55:57;;;;;;;3.72;1.50;;;;;;;;;;5113063;28;20031;-28
2023/12/31 04:58:22;;;;;;;3.80;1.57;;;;;;;;;;5114029;28;20053;-29
2023/12/31 05:00:47;;;;;;;2.37;1.50;;;;;;;;;;5098772;28;20858;-29
2023/12/31 05:03:13;;;;;;;3.15;1.27;;;;;;;;;;5117674;28;20284;-29
2023/12/31 05:05:38;;;;;;;3.33;1.57;;;;;;;;;;5117160;28;20016;-29
2023/12/31 05:08:03;;;;;;;2.30;1.38;;;;;;;;;;5117311;28;20752;-29
2023/12/31 05:10:29;;;;;;;2.47;1.50;;;;;;;;;;5117260;28;20020;-29
2023/12/31 05:12:54;;;;;;;5.13;1.87;;;;;;;;;;5117007;28;20020;-29
2023/12/31 05:15:19;;;;;;;2.60;1.33;;;;;;;;;;5116897;28;20312;-29
2023/12/31 05:17:44;;;;;;;3.27;1.50;;;;;;;;;;5117444;28;20258;-29
2023/12/31 05:20:09;;;;;;;2.50;1.30;;;;;;;;;;5116891;28;20766;-29
2023/12/31 05:22:34;;;;;;;2.28;1.40;;;;;;;;;;5116837;28;20404;-29
2023/12/31 05:25:00;;;;;;;2.63;1.40;;;;;;;;;;5117356;28;20047;-29
2023/12/31 05:27:25;;;;;;;4.27;1.47;;;;;;;;;;5116759;28;20526;-29
2023/12/31 05:29:50;;;;;;;4.47;1.53;;;;;;;;;;5117121;28;20260;-28
2023/12/31 05:32:15;;;;;;;2.70;1.30;;;;;;;;;;5116557;28;20246;-29
2023/12/31 05:34:40;;;;;;;2.87;1.60;;;;;;;;;;5116584;28;20254;-29
2023/12/31 05:37:06;;;;;;;3.13;1.80;;;;;;;;;;5117524;28;20262;-29
2023/12/31 05:39:32;;;;;;;4.25;1.75;;;;;;;;;;5116890;28;20020;-29
2023/12/31 05:41:58;;;;;;;3.22;1.52;;;;;;;;;;5098454;28;20020;-29
2023/12/31 05:44:23;;;;;;;1.90;1.40;;;;;;;;;;5098282;28;20023;-29
2023/12/31 05:46:52;;;;;;;3.13;1.92;;;;;;;;;;5098203;28;20043;-29
2023/12/31 05:49:17;;;;;;;3.25;1.60;;;;;;;;;;5097883;28;20021;-28
2023/12/31 05:51:42;;;;;;;4.23;1.70;;;;;;;;;;5116565;28;20363;-29
2023/12/31 05:54:07;;;;;;;3.93;1.70;;;;;;;;;;5116266;28;20256;-29
2023/12/31 05:56:32;;;;;;;3.07;1.77;;;;;;;;;;5116434;28;20245;-29
2023/12/31 05:58:58;;;;;;;3.80;1.70;;;;;;;;;;5116361;28;20253;-29
2023/12/31 06:01:23;;;;;;;5.13;2.00;;;;;;;;;;5115967;28;20372;-29
2023/12/31 06:03:48;;;;;;;2.27;1.80;;;;;;;;;;5115939;28;20759;-28
2023/12/31 06:06:13;;;;;;;2.30;1.60;;;;;;;;;;5116488;28;20325;-28
2023/12/31 06:08:38;;;;;;;3.90;1.60;;;;;;;;;;5115922;28;20258;-29
2023/12/31 06:11:03;;;;;;;2.80;1.57;;;;;;;;;;5115944;28;20468;-29
2023/12/31 06:13:29;;;;;;;2.40;1.80;;;;;;;;;;5116258;28;20249;-29
2023/12/31 06:15:54;;;;;;;4.00;1.80;;;;;;;;;;5115811;28;20608;-29
2023/12/31 06:18:19;;;;;;;2.77;1.67;;;;;;;;;;5115784;28;20015;-29
2023/12/31 06:20:44;;;;;;;2.70;1.83;;;;;;;;;;5116215;28;20257;-29
2023/12/31 06:23:10;;;;;;;4.03;1.90;;;;;;;;;;5115576;28;20645;-29
2023/12/31 06:25:35;;;;;;;5.53;1.90;;;;;;;;;;5115620;28;20026;-29
2023/12/31 06:28:00;;;;;;;2.92;1.80;;;;;;;;;;5115874;28;20359;-29
2023/12/31 06:30:26;;;;;;;4.32;2.05;;;;;;;;;;5115548;28;20012;-29
2023/12/31 06:32:51;;;;;;;2.63;1.70;;;;;;;;;;5115475;28;20388;-29
2023/12/31 06:35:16;;;;;;;3.17;2.03;;;;;;;;;;5097082;28;20273;-29
2023/12/31 06:37:41;;;;;;;7.15;2.03;;;;;;;;;;5115357;28;20791;-29
2023/12/31 06:40:08;;;;;;;4.20;2.10;;;;;;;;;;5115914;28;20012;-29
2023/12/31 06:42:33;;;;;;;3.63;2.00;;;;;;;;;;5115419;28;20340;-29
2023/12/31 06:44:58;;;;;;;3.80;1.90;;;;;;;;;;5115788;28;20095;-28
2023/12/31 06:47:23;;;;;;;3.73;2.17;;;;;;;;;;5115192;28;20370;-29
2023/12/31 06:49:49;;;;;;;2.47;1.90;;;;;;;;;;5115648;28;20253;-29
2023/12/31 06:52:14;;;;;;;3.55;2.15;;;;;;;;;;5114965;28;20328;-29
2023/12/31 06:54:39;;;;;;;3.58;2.22;;;;;;;;;;5115321;28;20027;-29
2023/12/31 06:57:04;;;;;;;3.67;2.00;;;;;;;;;;5114966;28;20397;-28
2023/12/31 06:59:30;;;;;;;3.65;2.15;;;;;;;;;;5114830;28;20015;-29
2023/12/31 07:01:55;;;;;;;5.63;2.65;;;;;;;;;;5115499;28;20024;-29
2023/12/31 07:04:20;;;;;;;3.33;1.83;;;;;;;;;;5115110;28;20043;-29
2023/12/31 07:06:46;;;;;;;4.10;2.30;;;;;;;;;;5115037;28;20012;-28
2023/12/31 07:09:11;;;;;;;5.07;2.05;;;;;;;;;;5096823;28;20356;-29
2023/12/31 07:11:37;;;;;;;5.03;2.03;;;;;;;;;;5096805;28;20027;-29
2023/12/31 07:14:02;;;;;;;3.65;2.30;;;;;;;;;;5115303;28;20019;-29
2023/12/31 07:16:28;;;;;;;3.13;2.20;;;;;;;;;;5114545;28;20020;-28
2023/12/31 07:18:54;;;;;;;3.38;2.08;;;;;;;;;;5114423;28;20110;-28
2023/12/31 07:21:23;;;;;;;4.70;2.38;;;;;;;;;;5114132;28;20076;-29
2023/12/31 07:23:48;;;;;;;3.67;2.10;;;;;;;;;;5114399;28;20516;-29
2023/12/31 07:26:22;;;;;;;3.15;2.00;;;;;;;;;;5114507;28;20019;-29
2023/12/31 07:28:47;;;;;;;3.40;1.85;;;;;;;;;;5114379;28;20468;-29
2023/12/31 07:31:13;;;;;;;3.25;2.20;;;;;;;;;;5096113;28;20030;-29
2023/12/31 07:33:38;;;;;;;4.40;2.43;;;;;;;;;;5114776;28;20098;-29
2023/12/31 07:36:03;;;;;;;2.97;1.90;;;;;;;;;;5114697;28;20262;-29
2023/12/31 07:38:28;;;;;;;5.15;2.17;;;;;;;;;;5114082;28;20249;-29
2023/12/31 07:40:53;;;;;;;4.50;2.40;;;;;;;;;;5114159;28;20458;-29
2023/12/31 07:43:19;;;;;;;3.97;2.17;;;;;;;;;;5113983;28;20323;-29
2023/12/31 07:45:44;;;;;;;2.90;1.93;;;;;;;;;;5114143;28;20676;-29
2023/12/31 07:48:11;;;;;;;3.85;2.25;;;;;;;;;;5114331;28;20321;-30
2023/12/31 07:50:40;;;;;;;4.35;2.33;;;;;;;;;;5114657;28;20351;-29
2023/12/31 07:53:05;;;;;;;2.50;1.80;;;;;;;;;;5095867;28;20027;-29
2023/12/31 07:55:31;;;;;;;4.15;2.20;;;;;;;;;;5095876;28;20437;-29
2023/12/31 07:57:57;;;;;;;3.88;2.42;;;;;;;;;;5095303;28;20028;-29
2023/12/31 08:00:23;;;;;;;5.00;2.10;;;;;;;;;;5113963;28;20043;-29
2023/12/31 08:02:49;;;;;;;3.13;2.20;;;;;;;;;;5095642;28;20470;-29
2023/12/31 08:05:15;;;;;;;4.50;2.30;;;;;;;;;;5114139;28;20026;-29
2023/12/31 08:07:40;;;;;;;4.40;2.20;;;;;;;;;;5113779;28;20144;-29
2023/12/31 08:10:05;;;;;;;5.15;1.88;;;;;;;;;;5113763;28;20046;-29
2023/12/31 08:12:31;;;;;;;3.47;1.90;;;;;;;;;;5113650;28;20020;-29
2023/12/31 08:14:56;;;;;;;5.47;2.30;;;;;;;;;;5113507;28;20019;-29
2023/12/31 08:17:23;;;;;;;3.13;2.00;;;;;;;;;;5113465;28;20007;-28
2023/12/31 08:19:48;;;;;;;4.65;2.10;;;;;;;;;;5113455;28;20323;-29
2023/12/31 08:22:13;;;;;;;3.60;2.10;;;;;;;;;;5114096;28;20043;-28
2023/12/31 08:24:38;;;;;;;3.70;2.10;;;;;;;;;;5113393;28;20265;-29
2023/12/31 08:27:04;;;;;;;4.13;2.20;;;;;;;;;;5113452;28;20310;-28
2023/12/31 08:29:29;;;;;;;5.05;2.00;;;;;;;;;;5113367;28;20328;-28
2023/12/31 08:31:54;;;;;;;4.93;2.17;;;;;;;;;;5113887;28;20026;-29
2023/12/31 08:34:20;;;;;;;4.60;2.30;;;;;;;;;;5112845;28;20801;-29
2023/12/31 08:36:45;;;;;;;3.22;1.92;;;;;;;;;;5113531;28;20016;-29
2023/12/31 08:39:11;;;;;;;5.18;2.10;;;;;;;;;;5113961;28;20031;-29
2023/12/31 08:41:36;;;;;;;3.60;2.00;;;;;;;;;;5095007;28;20335;-29
2023/12/31 08:44:02;;;;;;;5.07;2.20;;;;;;;;;;5115085;28;20034;-32
2023/12/31 08:46:27;;;;;;;4.10;2.25;;;;;;;;;;5094860;28;20355;-32
2023/12/31 08:48:53;;;;;;;3.33;2.30;;;;;;;;;;5113320;28;20012;-32
2023/12/31 08:51:19;;;;;;;3.78;2.08;;;;;;;;;;5113602;28;20261;-33
2023/12/31 08:53:44;;;;;;;3.50;2.00;;;;;;;;;;5113495;28;20049;-32
2023/12/31 08:56:09;;;;;;;4.13;2.40;;;;;;;;;;5113811;28;20112;-32
2023/12/31 08:58:34;;;;;;;5.43;2.50;;;;;;;;;;5113261;28;20264;-32
2023/12/31 09:00:59;;;;;;;3.17;2.33;;;;;;;;;;5113619;28;20284;-33
2023/12/31 09:03:24;;;;;;;3.92;2.28;;;;;;;;;;5113759;28;20277;-32
2023/12/31 09:05:50;;;;;;;5.10;2.30;;;;;;;;;;5113660;28;20041;-32
2023/12/31 09:08:15;;;;;;;4.10;2.40;;;;;;;;;;5114254;28;20245;-32
2023/12/31 09:10:40;;;;;;;4.90;2.33;;;;;;;;;;5113531;28;20253;-32
2023/12/31 09:13:06;;;;;;;3.90;2.38;;;;;;;;;;5113621;28;20023;-32
2023/12/31 09:15:31;;;;;;;6.17;3.33;;;;;;;;;;5113622;28;20038;-32
2023/12/31 09:17:56;;;;;;;6.47;2.80;;;;;;;;;;5113621;28;20731;-32
2023/12/31 09:20:21;;;;;;;5.95;2.50;;;;;;;;;;5113567;28;20272;-32
2023/12/31 09:22:50;;;;;;;5.43;1.17;;;;;;;;;;5113446;28;20030;-33
2023/12/31 09:25:15;;;;;;;5.22;1.00;;;;;;;;;;5113840;28;20455;-32
2023/12/31 09:27:41;;;;;;;6.50;0.93;;;;;;;;;;5113613;28;20023;-32
2023/12/31 09:30:06;;;;;;;2.28;0.82;;;;;;;;;;5114403;28;20020;-32
2023/12/31 09:32:31;;;;;;;5.35;2.25;;;;;;;;;;5113651;28;20359;-32
2023/12/31 09:34:57;;;;;;;4.25;1.58;;;;;;;;;;5095347;28;20012;-32
2023/12/31 09:37:23;;;;;;;4.47;1.03;;;;;;;;;;5113755;28;20061;-32
2023/12/31 09:39:49;;;;;;;1.75;1.00;;;;;;;;;;5113905;28;20308;-32
2023/12/31 09:42:20;;;;;;;2.17;1.08;;;;;;;;;;5113545;28;20016;-32
2023/12/31 09:44:46;;;;;;;2.20;0.80;;;;;;;;;;5114509;28;20502;-33
2023/12/31 09:47:11;;;;;;;1.55;0.90;;;;;;;;;;5117164;28;20018;-32
2023/12/31 09:49:37;;;;;;;1.40;0.77;;;;;;;;;;5117267;28;20102;-32
2023/12/31 09:52:03;;;;;;;1.92;0.80;;;;;;;;;;5116968;28;20008;-32
2023/12/31 09:54:30;;;;;;;2.15;0.70;;;;;;;;;;5116976;28;20031;-32
2023/12/31 09:56:56;;;;;;;1.67;0.68;;;;;;;;;;5117571;28;20020;-32
2023/12/31 09:59:22;;;;;;;2.97;0.77;;;;;;;;;;5116974;28;20024;-31
2023/12/31 10:01:47;;;;;;;4.13;0.80;;;;;;;;;;5117434;28;20377;-33
2023/12/31 10:04:13;;;;;;;2.97;0.90;;;;;;;;;;5098564;28;20106;-32
2023/12/31 10:06:39;;;;;;;3.45;1.17;;;;;;;;;;5116793;28;20094;-32
2023/12/31 10:09:06;;;;;;;2.53;0.80;;;;;;;;;;5116735;28;20047;-32
2023/12/31 10:11:31;;;;;;;2.83;0.80;;;;;;;;;;5116587;28;20019;-32
2023/12/31 10:13:56;;;;;;;1.33;0.60;;;;;;;;;;5117206;28;20028;-32
2023/12/31 10:16:21;;;;;;;2.75;1.00;;;;;;;;;;5116468;28;20016;-32
2023/12/31 10:18:47;;;;;;;1.67;0.77;;;;;;;;;;5116944;28;20016;-32
2023/12/31 10:21:12;;;;;;;2.27;0.90;;;;;;;;;;5117028;28;20023;-32
2023/12/31 10:23:37;;;;;;;3.80;1.33;;;;;;;;;;5116618;28;20314;-32
2023/12/31 10:26:03;;;;;;;2.80;1.20;;;;;;;;;;5116561;28;20061;-32
2023/12/31 10:28:28;;;;;;;2.80;1.10;;;;;;;;;;5098136;28;20370;-33
2023/12/31 10:30:53;;;;;;;2.28;1.23;;;;;;;;;;5097995;28;20034;-33
2023/12/31 10:33:19;;;;;;;4.30;1.60;;;;;;;;;;5116924;28;20016;-33
2023/12/31 10:35:45;;;;;;;1.95;1.40;;;;;;;;;;5116850;28;20657;-33
2023/12/31 10:38:11;;;;;;;3.85;1.27;;;;;;;;;;5116496;28;20028;-33
2023/12/31 10:40:36;;;;;;;5.60;1.95;;;;;;;;;;5116541;28;20343;-32
2023/12/31 10:43:05;;;;;;;3.17;1.38;;;;;;;;;;5097765;28;20587;-33
2023/12/31 10:45:32;;;;;;;2.08;1.20;;;;;;;;;;5116546;28;20015;-32
2023/12/31 10:47:59;;;;;;;2.15;1.25;;;;;;;;;;5115964;28;20030;-33
2023/12/31 10:50:25;;;;;;;2.92;1.40;;;;;;;;;;5116587;28;20031;-33
2023/12/31 10:52:55;;;;;;;2.30;1.25;;;;;;;;;;5116568;28;20019;-32
2023/12/31 10:55:21;;;;;;;3.65;1.75;;;;;;;;;;5116039;28;20028;-40
2023/12/31 10:57:46;;;;;;;5.30;1.92;;;;;;;;;;5115407;28;20078;-33
2023/12/31 11:00:13;;;;;;;5.95;1.92;;;;;;;;;;5115720;28;20135;-33
2023/12/31 11:02:38;;;;;;;5.28;1.50;;;;;;;;;;5115950;28;20023;-33
2023/12/31 11:05:06;;;;;;;3.28;1.55;;;;;;;;;;5115602;28;20024;-33
2023/12/31 11:07:31;;;;;;;3.25;1.48;;;;;;;;;;5097332;28;20015;-33
2023/12/31 11:09:59;;;;;;;3.28;1.90;;;;;;;;;;5097240;28;20038;-33
2023/12/31 11:12:25;;;;;;;2.50;1.55;;;;;;;;;;5115500;28;20454;-33
2023/12/31 11:15:10;;;;;;;2.95;1.80;;;;;;;;;;5115375;28;20106;-33
2023/12/31 11:17:59;;;;;;;3.40;1.40;;;;;;;;;;5114654;28;20417;-33
2023/12/31 11:20:30;;;;;;;4.50;1.63;;;;;;;;;;5101605;28;20475;-35
2023/12/31 11:23:00;;;;;;;4.47;1.40;;;;;;;;;;5115123;28;20492;-33
2023/12/31 11:25:26;;;;;;;4.43;1.75;;;;;;;;;;5115087;28;20020;-33
2023/12/31 11:27:53;;;;;;;4.90;1.20;;;;;;;;;;5115104;28;20015;-32
2023/12/31 11:30:37;;;;;;;2.92;0.80;;;;;;;;;;5096851;28;20016;-33
2023/12/31 11:33:03;;;;;;;1.42;0.68;;;;;;;;;;5115137;28;20051;-33
2023/12/31 11:35:40;;;;;;;1.40;0.63;;;;;;;;;;5115196;28;20058;-33
2023/12/31 11:38:06;;;;;;;2.17;0.90;;;;;;;;;;5115021;28;20390;-32
2023/12/31 11:40:31;;;;;;;2.10;0.70;;;;;;;;;;5114920;28;20031;-33
2023/12/31 11:42:56;;;;;;;3.38;1.10;;;;;;;;;;5115365;28;20265;-33
2023/12/31 11:45:43;;;;;;;2.33;0.90;;;;;;;;;;5115148;28;20022;-32
2023/12/31 11:48:24;;;;;;;3.88;0.80;;;;;;;;;;5114656;28;20269;-32
2023/12/31 11:50:53;;;;;;;3.60;1.42;;;;;;;;;;5114625;28;20023;-33
2023/12/31 11:53:24;;;;;;;4.32;1.02;;;;;;;;;;5114700;28;20397;-33
2023/12/31 11:55:53;;;;;;;3.88;1.55;;;;;;;;;;5114731;28;20061;-33
2023/12/31 11:58:19;;;;;;;5.25;1.40;;;;;;;;;;5114866;28;20474;-32
2023/12/31 12:00:45;;;;;;;4.72;1.33;;;;;;;;;;5114394;28;20079;-33
2023/12/31 12:03:12;;;;;;;3.50;1.20;;;;;;;;;;5096397;28;20050;-33
2023/12/31 12:05:37;;;;;;;4.00;1.30;;;;;;;;;;5114616;28;20012;-33
2023/12/31 12:08:05;;;;;;;2.73;1.03;;;;;;;;;;5114356;28;20095;-32
2023/12/31 12:10:30;;;;;;;2.80;1.20;;;;;;;;;;5114399;28;20344;-32
2023/12/31 12:12:57;;;;;;;4.97;1.10;;;;;;;;;;5114473;28;20058;-32
2023/12/31 12:15:22;;;;;;;3.92;1.17;;;;;;;;;;5114320;28;20019;-33
2023/12/31 12:17:48;;;;;;;2.03;0.95;;;;;;;;;;5114289;28;20020;-33
2023/12/31 12:20:13;;;;;;;1.85;0.80;;;;;;;;;;5095960;28;20054;-33
2023/12/31 12:22:39;;;;;;;3.05;1.20;;;;;;;;;;5114430;28;20023;-33
2023/12/31 12:25:04;;;;;;;4.43;1.00;;;;;;;;;;5114561;28;20451;-33
2023/12/31 12:27:30;;;;;;;6.68;1.52;;;;;;;;;;5114505;28;20378;-33
2023/12/31 12:29:56;;;;;;;4.40;1.70;;;;;;;;;;5114123;28;20450;-33
2023/12/31 12:32:21;;;;;;;5.22;1.10;;;;;;;;;;5114284;28;20027;-32
2023/12/31 12:34:49;;;;;;;3.97;1.70;;;;;;;;;;5114385;28;20036;-33
2023/12/31 12:37:15;;;;;;;10.65;2.33;;;;;;;;;;5114047;28;20497;-32
2023/12/31 12:39:40;;;;;;;7.47;1.30;;;;;;;;;;5114118;28;20016;-32
2023/12/31 12:42:06;;;;;;;9.20;1.60;;;;;;;;;;5114256;28;20044;-33
2023/12/31 12:44:33;;;;;;;4.25;1.50;;;;;;;;;;5113858;28;20069;-32
2023/12/31 12:47:01;;;;;;;5.70;1.40;;;;;;;;;;5113888;28;20016;-33
2023/12/31 12:49:26;;;;;;;7.90;1.42;;;;;;;;;;5114371;28;20443;-33
2023/12/31 12:51:51;;;;;;;4.30;1.43;;;;;;;;;;5113889;28;20090;-33
2023/12/31 12:54:16;;;;;;;8.70;1.50;;;;;;;;;;5114196;28;20249;-33
2023/12/31 12:56:44;;;;;;;6.93;1.73;;;;;;;;;;5114043;28;20272;-33
2023/12/31 12:59:09;;;;;;;6.47;2.78;;;;;;;;;;5114017;28;20378;-33
2023/12/31 13:01:36;;;;;;;5.37;1.47;;;;;;;;;;5113586;28;20047;-33
2023/12/31 13:04:01;;;;;;;6.50;1.75;;;;;;;;;;5113850;28;20760;-33
2023/12/31 13:06:26;;;;;;;7.17;1.57;;;;;;;;;;5113643;28;20022;-33
2023/12/31 13:08:52;;;;;;;4.43;1.17;;;;;;;;;;5113971;28;20246;-33
2023/12/31 13:11:17;;;;;;;6.45;1.40;;;;;;;;;;5113598;28;20020;-32
2023/12/31 13:13:42;;;;;;;5.72;1.50;;;;;;;;;;5113917;28;20090;-32
2023/12/31 13:16:08;;;;;;;11.10;1.95;;;;;;;;;;5113799;28;20019;-33
2023/12/31 13:18:33;;;;;;;8.82;1.33;;;;;;;;;;5113839;28;20450;-33
2023/12/31 13:20:58;;;;;;;6.10;1.60;;;;;;;;;;5116710;28;20016;-32
2023/12/31 13:23:24;;;;;;;6.77;1.57;;;;;;;;;;5118089;28;20376;-32
2023/12/31 13:25:49;;;;;;;6.35;1.58;;;;;;;;;;5117752;28;20261;-33
2023/12/31 13:28:15;;;;;;;6.25;1.77;;;;;;;;;;5117378;28;20034;-32
2023/12/31 13:30:41;;;;;;;4.30;1.30;;;;;;;;;;5117552;28;20447;-32
2023/12/31 13:33:07;;;;;;;6.80;1.50;;;;;;;;;;5117945;28;20027;-32
2023/12/31 13:35:33;;;;;;;5.40;1.05;;;;;;;;;;5117200;28;20617;-33
2023/12/31 13:37:58;;;;;;;11.77;2.10;;;;;;;;;;5117822;28;20020;-33
2023/12/31 13:40:23;;;;;;;10.40;1.40;;;;;;;;;;5117580;28;20074;-33
2023/12/31 13:42:48;;;;;;;5.73;1.57;;;;;;;;;;5116317;28;20624;-32
2023/12/31 13:45:13;;;;;;;10.45;2.10;;;;;;;;;;5114993;28;20020;-33
2023/12/31 13:47:38;;;;;;;10.02;2.10;;;;;;;;;;5115030;28;20016;-33
2023/12/31 13:50:04;;;;;;;8.70;2.10;;;;;;;;;;5115087;28;20020;-33
2023/12/31 13:52:29;;;;;;;8.07;1.60;;;;;;;;;;5114697;28;20279;-33
2023/12/31 13:54:55;;;;;;;4.20;1.38;;;;;;;;;;5115059;28;20023;-33
2023/12/31 13:57:20;;;;;;;6.35;1.70;;;;;;;;;;5114839;28;20477;-33
2023/12/31 13:59:45;;;;;;;7.50;1.77;;;;;;;;;;5116317;28;20069;-33
2023/12/31 14:02:11;;;;;;;8.87;1.90;;;;;;;;;;5116886;28;20253;-33
2023/12/31 14:04:36;;;;;;;6.72;1.70;;;;;;;;;;5116737;28;20305;-32
2023/12/31 14:07:01;;;;;;;6.80;2.17;;;;;;;;;;5117298;28;20464;-32
2023/12/31 14:09:26;;;;;;;11.85;2.03;;;;;;;;;;5098431;28;20382;-33
2023/12/31 14:11:52;;;;;;;6.93;1.80;;;;;;;;;;5098255;28;20056;-33
2023/12/31 14:14:17;;;;;;;6.15;1.70;;;;;;;;;;5116740;28;20095;-32
2023/12/31 14:16:42;;;;;;;10.63;2.07;;;;;;;;;;5117041;28;20023;-33
2023/12/31 14:19:08;;;;;;;8.45;1.58;;;;;;;;;;5116918;28;20795;-32
2023/12/31 14:21:33;;;;;;;9.48;1.60;;;;;;;;;;5116435;28;20407;-33
2023/12/31 14:23:58;;;;;;;5.97;1.40;;;;;;;;;;5116428;28;20374;-33
2023/12/31 14:26:23;;;;;;;7.88;2.10;;;;;;;;;;5098184;28;20030;-32
2023/12/31 14:28:49;;;;;;;8.40;1.90;;;;;;;;;;5117006;28;20050;-33
2023/12/31 14:31:14;;;;;;;6.80;1.83;;;;;;;;;;5116461;28;20751;-33
2023/12/31 14:33:39;;;;;;;6.53;2.08;;;;;;;;;;5116347;28;20098;-33